sensor_id;sensor_type;location;lat;lon;timestamp;P1;durP1;ratioP1;P2;durP2;ratioP2
44452;SDS011;30155;52.164;21.236;2023-01-15T00:02:06;22.00;;;12.70;;
44452;SDS011;30155;52.164;21.236;2023-01-15T00:07:00;17.90;;;12.40;;
44452;SDS011;30155;52.164;21.236;2023-01-15T00:11:55;20.70;;;13.10;;
44452;SDS011;30155;52.164;21.236;2023-01-15T00:16:51;20.60;;;12.10;;
44452;SDS011;30155;52.164;21.236;2023-01-15T00:21:44;16.10;;;11.40;;
44452;SDS011;30155;52.164;21.236;2023-01-15T00:26:38;15.90;;;10.90;;
44452;SDS011;30155;52.164;21.236;2023-01-15T00:31:52;17.10;;;11.30;;
44452;SDS011;30155;52.164;21.236;2023-01-15T00:36:49;20.00;;;11.20;;
44452;SDS011;30155;52.164;21.236;2023-01-15T00:41:42;16.50;;;10.80;;
44452;SDS011;30155;52.164;21.236;2023-01-15T00:46:35;19.30;;;11.40;;
44452;SDS011;30155;52.164;21.236;2023-01-15T00:51:28;17.90;;;11.40;;
44452;SDS011;30155;52.164;21.236;2023-01-15T00:56:21;15.40;;;9.40;;
44452;SDS011;30155;52.164;21.236;2023-01-15T01:01:14;16.50;;;10.50;;
44452;SDS011;30155;52.164;21.236;2023-01-15T01:06:08;15.30;;;10.10;;
44452;SDS011;30155;52.164;21.236;2023-01-15T01:11:04;17.30;;;10.20;;
44452;SDS011;30155;52.164;21.236;2023-01-15T01:16:03;13.60;;;9.70;;
44452;SDS011;30155;52.164;21.236;2023-01-15T01:20:57;14.10;;;9.40;;
44452;SDS011;30155;52.164;21.236;2023-01-15T01:25:52;16.10;;;11.10;;
44452;SDS011;30155;52.164;21.236;2023-01-15T01:30:45;14.80;;;10.30;;
44452;SDS011;30155;52.164;21.236;2023-01-15T01:35:39;15.50;;;9.00;;
44452;SDS011;30155;52.164;21.236;2023-01-15T01:40:39;15.20;;;9.40;;
44452;SDS011;30155;52.164;21.236;2023-01-15T01:45:32;16.80;;;10.20;;
44452;SDS011;30155;52.164;21.236;2023-01-15T01:50:25;14.00;;;9.60;;
44452;SDS011;30155;52.164;21.236;2023-01-15T01:55:22;14.50;;;8.90;;
44452;SDS011;30155;52.164;21.236;2023-01-15T02:00:18;17.60;;;11.10;;
44452;SDS011;30155;52.164;21.236;2023-01-15T02:05:13;13.30;;;10.10;;
44452;SDS011;30155;52.164;21.236;2023-01-15T02:10:15;17.30;;;11.10;;
44452;SDS011;30155;52.164;21.236;2023-01-15T02:15:11;19.40;;;10.80;;
44452;SDS011;30155;52.164;21.236;2023-01-15T02:20:17;13.10;;;9.10;;
44452;SDS011;30155;52.164;21.236;2023-01-15T02:30:48;15.50;;;9.50;;
44452;SDS011;30155;52.164;21.236;2023-01-15T02:35:47;15.00;;;9.50;;
44452;SDS011;30155;52.164;21.236;2023-01-15T02:40:46;14.90;;;8.90;;
44452;SDS011;30155;52.164;21.236;2023-01-15T02:45:45;15.70;;;10.60;;
44452;SDS011;30155;52.164;21.236;2023-01-15T02:50:42;13.90;;;9.10;;
44452;SDS011;30155;52.164;21.236;2023-01-15T02:55:39;16.80;;;10.40;;
44452;SDS011;30155;52.164;21.236;2023-01-15T03:00:37;15.60;;;9.10;;
44452;SDS011;30155;52.164;21.236;2023-01-15T03:05:38;13.10;;;9.40;;
44452;SDS011;30155;52.164;21.236;2023-01-15T03:16:05;13.90;;;8.60;;
44452;SDS011;30155;52.164;21.236;2023-01-15T03:21:25;15.20;;;9.00;;
44452;SDS011;30155;52.164;21.236;2023-01-15T03:26:22;15.10;;;8.80;;
44452;SDS011;30155;52.164;21.236;2023-01-15T03:31:16;12.70;;;8.90;;
44452;SDS011;30155;52.164;21.236;2023-01-15T03:36:09;12.30;;;7.70;;
44452;SDS011;30155;52.164;21.236;2023-01-15T03:56:52;11.60;;;6.80;;
44452;SDS011;30155;52.164;21.236;2023-01-15T04:01:55;12.10;;;6.20;;
44452;SDS011;30155;52.164;21.236;2023-01-15T04:06:50;9.10;;;6.10;;
44452;SDS011;30155;52.164;21.236;2023-01-15T04:11:43;9.20;;;6.10;;
44452;SDS011;30155;52.164;21.236;2023-01-15T04:16:37;11.00;;;6.50;;
44452;SDS011;30155;52.164;21.236;2023-01-15T04:21:31;8.40;;;5.60;;
44452;SDS011;30155;52.164;21.236;2023-01-15T04:26:23;12.50;;;6.00;;
44452;SDS011;30155;52.164;21.236;2023-01-15T04:31:16;7.70;;;5.40;;
44452;SDS011;30155;52.164;21.236;2023-01-15T04:36:10;8.30;;;6.10;;
44452;SDS011;30155;52.164;21.236;2023-01-15T04:41:05;7.00;;;4.90;;
44452;SDS011;30155;52.164;21.236;2023-01-15T04:46:19;8.00;;;5.40;;
44452;SDS011;30155;52.164;21.236;2023-01-15T04:56:06;7.90;;;5.80;;
44452;SDS011;30155;52.164;21.236;2023-01-15T05:00:59;9.50;;;5.20;;
44452;SDS011;30155;52.164;21.236;2023-01-15T05:05:53;7.20;;;4.40;;
44452;SDS011;30155;52.164;21.236;2023-01-15T05:10:46;6.70;;;4.60;;
44452;SDS011;30155;52.164;21.236;2023-01-15T05:15:39;5.50;;;4.50;;
44452;SDS011;30155;52.164;21.236;2023-01-15T05:20:36;6.70;;;5.10;;
44452;SDS011;30155;52.164;21.236;2023-01-15T05:25:29;6.90;;;4.70;;
44452;SDS011;30155;52.164;21.236;2023-01-15T05:30:22;6.40;;;4.10;;
44452;SDS011;30155;52.164;21.236;2023-01-15T05:35:15;10.60;;;5.40;;
44452;SDS011;30155;52.164;21.236;2023-01-15T05:40:08;7.40;;;5.00;;
44452;SDS011;30155;52.164;21.236;2023-01-15T05:45:01;7.20;;;4.30;;
44452;SDS011;30155;52.164;21.236;2023-01-15T05:49:54;5.60;;;3.90;;
44452;SDS011;30155;52.164;21.236;2023-01-15T05:54:47;7.00;;;3.90;;
44452;SDS011;30155;52.164;21.236;2023-01-15T05:59:41;5.20;;;3.80;;
44452;SDS011;30155;52.164;21.236;2023-01-15T06:04:34;7.10;;;4.30;;
44452;SDS011;30155;52.164;21.236;2023-01-15T06:09:28;7.40;;;4.00;;
44452;SDS011;30155;52.164;21.236;2023-01-15T06:14:21;4.10;;;3.10;;
44452;SDS011;30155;52.164;21.236;2023-01-15T06:19:13;4.90;;;4.10;;
44452;SDS011;30155;52.164;21.236;2023-01-15T06:24:06;5.80;;;3.10;;
44452;SDS011;30155;52.164;21.236;2023-01-15T06:29:00;5.60;;;3.60;;
44452;SDS011;30155;52.164;21.236;2023-01-15T06:33:53;5.00;;;3.60;;
44452;SDS011;30155;52.164;21.236;2023-01-15T06:38:47;6.60;;;3.90;;
44452;SDS011;30155;52.164;21.236;2023-01-15T06:43:41;5.00;;;3.50;;
44452;SDS011;30155;52.164;21.236;2023-01-15T06:48:51;5.10;;;3.80;;
44452;SDS011;30155;52.164;21.236;2023-01-15T06:53:45;4.30;;;3.20;;
44452;SDS011;30155;52.164;21.236;2023-01-15T06:58:38;4.20;;;3.00;;
44452;SDS011;30155;52.164;21.236;2023-01-15T07:03:31;5.60;;;3.60;;
44452;SDS011;30155;52.164;21.236;2023-01-15T07:08:26;7.20;;;4.00;;
44452;SDS011;30155;52.164;21.236;2023-01-15T07:13:18;3.60;;;3.00;;
44452;SDS011;30155;52.164;21.236;2023-01-15T07:18:11;4.90;;;3.20;;
44452;SDS011;30155;52.164;21.236;2023-01-15T07:23:04;5.50;;;3.90;;
44452;SDS011;30155;52.164;21.236;2023-01-15T07:27:57;4.60;;;3.30;;
44452;SDS011;30155;52.164;21.236;2023-01-15T07:32:50;4.10;;;2.90;;
44452;SDS011;30155;52.164;21.236;2023-01-15T07:37:43;3.90;;;3.10;;
44452;SDS011;30155;52.164;21.236;2023-01-15T07:42:36;5.50;;;3.10;;
44452;SDS011;30155;52.164;21.236;2023-01-15T07:47:46;5.10;;;3.00;;
44452;SDS011;30155;52.164;21.236;2023-01-15T07:52:56;4.10;;;3.30;;
44452;SDS011;30155;52.164;21.236;2023-01-15T07:57:49;4.00;;;3.00;;
44452;SDS011;30155;52.164;21.236;2023-01-15T08:02:44;3.80;;;3.20;;
44452;SDS011;30155;52.164;21.236;2023-01-15T08:07:40;3.90;;;3.20;;
44452;SDS011;30155;52.164;21.236;2023-01-15T08:12:34;5.40;;;3.80;;
44452;SDS011;30155;52.164;21.236;2023-01-15T08:17:48;5.10;;;3.70;;
44452;SDS011;30155;52.164;21.236;2023-01-15T08:22:42;7.40;;;4.10;;
44452;SDS011;30155;52.164;21.236;2023-01-15T08:27:36;5.70;;;3.60;;
44452;SDS011;30155;52.164;21.236;2023-01-15T08:32:30;5.30;;;3.20;;
44452;SDS011;30155;52.164;21.236;2023-01-15T08:37:23;3.00;;;2.70;;
44452;SDS011;30155;52.164;21.236;2023-01-15T08:42:18;4.30;;;2.80;;
44452;SDS011;30155;52.164;21.236;2023-01-15T08:47:12;4.50;;;3.40;;
44452;SDS011;30155;52.164;21.236;2023-01-15T08:52:07;4.40;;;3.10;;
44452;SDS011;30155;52.164;21.236;2023-01-15T08:57:00;5.60;;;3.20;;
44452;SDS011;30155;52.164;21.236;2023-01-15T09:01:53;4.50;;;3.50;;
44452;SDS011;30155;52.164;21.236;2023-01-15T09:06:46;5.50;;;3.50;;
44452;SDS011;30155;52.164;21.236;2023-01-15T09:11:40;5.60;;;4.00;;
44452;SDS011;30155;52.164;21.236;2023-01-15T09:16:36;5.90;;;3.90;;
44452;SDS011;30155;52.164;21.236;2023-01-15T09:21:31;5.30;;;3.40;;
44452;SDS011;30155;52.164;21.236;2023-01-15T09:26:28;4.90;;;3.30;;
44452;SDS011;30155;52.164;21.236;2023-01-15T09:31:23;9.00;;;3.90;;
44452;SDS011;30155;52.164;21.236;2023-01-15T09:36:23;6.80;;;4.80;;
44452;SDS011;30155;52.164;21.236;2023-01-15T09:41:19;5.60;;;4.00;;
44452;SDS011;30155;52.164;21.236;2023-01-15T09:51:35;7.10;;;3.90;;
44452;SDS011;30155;52.164;21.236;2023-01-15T09:56:40;8.20;;;4.80;;
44452;SDS011;30155;52.164;21.236;2023-01-15T10:01:33;6.50;;;4.90;;
44452;SDS011;30155;52.164;21.236;2023-01-15T10:06:27;7.30;;;4.60;;
44452;SDS011;30155;52.164;21.236;2023-01-15T10:11:34;7.80;;;5.00;;
44452;SDS011;30155;52.164;21.236;2023-01-15T10:16:50;8.10;;;5.20;;
44452;SDS011;30155;52.164;21.236;2023-01-15T10:21:52;10.70;;;5.10;;
44452;SDS011;30155;52.164;21.236;2023-01-15T10:26:58;7.80;;;5.40;;
44452;SDS011;30155;52.164;21.236;2023-01-15T10:46:50;9.50;;;6.40;;
44452;SDS011;30155;52.164;21.236;2023-01-15T10:51:49;12.20;;;7.40;;
44452;SDS011;30155;52.164;21.236;2023-01-15T10:56:47;10.00;;;6.30;;
44452;SDS011;30155;52.164;21.236;2023-01-15T11:01:43;11.40;;;6.90;;
44452;SDS011;30155;52.164;21.236;2023-01-15T11:06:39;8.20;;;5.80;;
44452;SDS011;30155;52.164;21.236;2023-01-15T11:16:52;8.00;;;5.50;;
44452;SDS011;30155;52.164;21.236;2023-01-15T11:22:10;10.30;;;7.50;;
44452;SDS011;30155;52.164;21.236;2023-01-15T11:27:04;11.70;;;7.00;;
44452;SDS011;30155;52.164;21.236;2023-01-15T11:31:59;9.70;;;6.30;;
44452;SDS011;30155;52.164;21.236;2023-01-15T11:37:02;10.10;;;7.10;;
44452;SDS011;30155;52.164;21.236;2023-01-15T11:42:03;9.20;;;6.60;;
44452;SDS011;30155;52.164;21.236;2023-01-15T11:47:16;10.80;;;7.00;;
44452;SDS011;30155;52.164;21.236;2023-01-15T11:52:28;9.70;;;6.50;;
44452;SDS011;30155;52.164;21.236;2023-01-15T11:57:22;10.60;;;6.70;;
44452;SDS011;30155;52.164;21.236;2023-01-15T12:07:21;11.00;;;7.40;;
44452;SDS011;30155;52.164;21.236;2023-01-15T12:12:33;8.30;;;6.40;;
44452;SDS011;30155;52.164;21.236;2023-01-15T12:17:41;14.70;;;7.60;;
44452;SDS011;30155;52.164;21.236;2023-01-15T12:38:59;10.80;;;7.60;;
44452;SDS011;30155;52.164;21.236;2023-01-15T12:43:54;10.10;;;7.70;;
44452;SDS011;30155;52.164;21.236;2023-01-15T12:49:29;13.40;;;7.80;;
44452;SDS011;30155;52.164;21.236;2023-01-15T12:54:33;12.20;;;8.00;;
44452;SDS011;30155;52.164;21.236;2023-01-15T12:59:46;11.80;;;8.50;;
44452;SDS011;30155;52.164;21.236;2023-01-15T13:04:47;11.90;;;8.70;;
44452;SDS011;30155;52.164;21.236;2023-01-15T13:09:59;17.10;;;9.40;;
44452;SDS011;30155;52.164;21.236;2023-01-15T13:15:12;12.60;;;7.80;;
44452;SDS011;30155;52.164;21.236;2023-01-15T13:20:12;11.60;;;7.80;;
44452;SDS011;30155;52.164;21.236;2023-01-15T13:45:46;13.40;;;9.10;;
44452;SDS011;30155;52.164;21.236;2023-01-15T13:50:50;14.70;;;9.50;;
44452;SDS011;30155;52.164;21.236;2023-01-15T13:56:12;14.00;;;8.40;;
44452;SDS011;30155;52.164;21.236;2023-01-15T14:01:24;11.30;;;8.50;;
44452;SDS011;30155;52.164;21.236;2023-01-15T14:06:21;14.40;;;8.70;;
44452;SDS011;30155;52.164;21.236;2023-01-15T14:21:54;13.80;;;9.50;;
44452;SDS011;30155;52.164;21.236;2023-01-15T14:37:20;12.70;;;7.70;;
44452;SDS011;30155;52.164;21.236;2023-01-15T14:47:33;12.80;;;9.70;;
44452;SDS011;30155;52.164;21.236;2023-01-15T14:52:35;14.30;;;10.00;;
44452;SDS011;30155;52.164;21.236;2023-01-15T14:57:28;13.30;;;9.50;;
44452;SDS011;30155;52.164;21.236;2023-01-15T15:02:43;14.10;;;9.70;;
44452;SDS011;30155;52.164;21.236;2023-01-15T15:07:38;15.90;;;10.40;;
44452;SDS011;30155;52.164;21.236;2023-01-15T15:12:48;15.10;;;10.40;;
44452;SDS011;30155;52.164;21.236;2023-01-15T15:23:03;15.40;;;10.80;;
44452;SDS011;30155;52.164;21.236;2023-01-15T15:28:19;15.30;;;10.70;;
44452;SDS011;30155;52.164;21.236;2023-01-15T15:33:16;18.00;;;10.70;;
44452;SDS011;30155;52.164;21.236;2023-01-15T15:38:16;15.80;;;11.60;;
44452;SDS011;30155;52.164;21.236;2023-01-15T15:43:13;19.20;;;11.20;;
44452;SDS011;30155;52.164;21.236;2023-01-15T15:48:29;15.50;;;10.60;;
44452;SDS011;30155;52.164;21.236;2023-01-15T15:53:44;16.40;;;10.90;;
44452;SDS011;30155;52.164;21.236;2023-01-15T15:58:40;19.70;;;12.70;;
44452;SDS011;30155;52.164;21.236;2023-01-15T16:03:33;17.70;;;11.40;;
44452;SDS011;30155;52.164;21.236;2023-01-15T16:08:31;17.00;;;11.80;;
44452;SDS011;30155;52.164;21.236;2023-01-15T16:13:27;14.10;;;10.80;;
44452;SDS011;30155;52.164;21.236;2023-01-15T16:18:25;12.50;;;10.60;;
44452;SDS011;30155;52.164;21.236;2023-01-15T16:23:22;18.90;;;11.30;;
44452;SDS011;30155;52.164;21.236;2023-01-15T16:28:21;16.10;;;11.20;;
44452;SDS011;30155;52.164;21.236;2023-01-15T16:33:17;18.30;;;11.50;;
44452;SDS011;30155;52.164;21.236;2023-01-15T16:38:14;17.40;;;11.10;;
44452;SDS011;30155;52.164;21.236;2023-01-15T16:43:12;13.60;;;9.90;;
44452;SDS011;30155;52.164;21.236;2023-01-15T16:53:27;19.00;;;12.30;;
44452;SDS011;30155;52.164;21.236;2023-01-15T16:58:34;18.30;;;12.90;;
44452;SDS011;30155;52.164;21.236;2023-01-15T17:03:29;18.60;;;11.10;;
44452;SDS011;30155;52.164;21.236;2023-01-15T17:08:31;18.70;;;11.70;;
44452;SDS011;30155;52.164;21.236;2023-01-15T17:13:32;15.00;;;10.60;;
44452;SDS011;30155;52.164;21.236;2023-01-15T17:18:27;17.70;;;11.40;;
44452;SDS011;30155;52.164;21.236;2023-01-15T17:23:22;16.10;;;11.80;;
44452;SDS011;30155;52.164;21.236;2023-01-15T17:28:17;15.90;;;11.50;;
44452;SDS011;30155;52.164;21.236;2023-01-15T17:33:17;12.80;;;8.40;;
44452;SDS011;30155;52.164;21.236;2023-01-15T17:38:17;12.50;;;8.30;;
44452;SDS011;30155;52.164;21.236;2023-01-15T17:43:11;11.20;;;8.00;;
44452;SDS011;30155;52.164;21.236;2023-01-15T17:48:06;11.50;;;7.70;;
44452;SDS011;30155;52.164;21.236;2023-01-15T17:53:00;10.90;;;6.70;;
44452;SDS011;30155;52.164;21.236;2023-01-15T17:57:56;12.00;;;8.70;;
44452;SDS011;30155;52.164;21.236;2023-01-15T18:03:10;11.00;;;7.00;;
44452;SDS011;30155;52.164;21.236;2023-01-15T18:08:28;10.50;;;6.70;;
44452;SDS011;30155;52.164;21.236;2023-01-15T18:13:23;10.10;;;7.20;;
44452;SDS011;30155;52.164;21.236;2023-01-15T18:18:17;10.00;;;6.70;;
44452;SDS011;30155;52.164;21.236;2023-01-15T18:23:10;11.40;;;7.50;;
44452;SDS011;30155;52.164;21.236;2023-01-15T18:28:04;11.00;;;7.70;;
44452;SDS011;30155;52.164;21.236;2023-01-15T18:32:57;9.90;;;6.80;;
44452;SDS011;30155;52.164;21.236;2023-01-15T18:37:53;11.20;;;6.20;;
44452;SDS011;30155;52.164;21.236;2023-01-15T18:42:46;9.10;;;7.10;;
44452;SDS011;30155;52.164;21.236;2023-01-15T18:47:59;10.70;;;8.20;;
44452;SDS011;30155;52.164;21.236;2023-01-15T18:52:54;10.00;;;7.80;;
44452;SDS011;30155;52.164;21.236;2023-01-15T18:57:47;11.70;;;7.60;;
44452;SDS011;30155;52.164;21.236;2023-01-15T19:02:41;13.70;;;10.40;;
44452;SDS011;30155;52.164;21.236;2023-01-15T19:07:35;12.40;;;8.50;;
44452;SDS011;30155;52.164;21.236;2023-01-15T19:12:28;12.50;;;10.10;;
44452;SDS011;30155;52.164;21.236;2023-01-15T19:17:22;14.00;;;9.20;;
44452;SDS011;30155;52.164;21.236;2023-01-15T19:22:33;14.60;;;9.40;;
44452;SDS011;30155;52.164;21.236;2023-01-15T19:27:47;14.50;;;9.70;;
44452;SDS011;30155;52.164;21.236;2023-01-15T19:32:45;15.20;;;10.60;;
44452;SDS011;30155;52.164;21.236;2023-01-15T19:37:38;12.70;;;10.30;;
44452;SDS011;30155;52.164;21.236;2023-01-15T19:42:32;16.40;;;10.40;;
44452;SDS011;30155;52.164;21.236;2023-01-15T19:47:42;11.50;;;8.10;;
44452;SDS011;30155;52.164;21.236;2023-01-15T19:52:53;11.10;;;8.80;;
44452;SDS011;30155;52.164;21.236;2023-01-15T19:57:57;14.80;;;11.50;;
44452;SDS011;30155;52.164;21.236;2023-01-15T20:02:52;13.30;;;10.00;;
44452;SDS011;30155;52.164;21.236;2023-01-15T20:07:45;15.50;;;10.20;;
44452;SDS011;30155;52.164;21.236;2023-01-15T20:12:38;13.70;;;10.10;;
44452;SDS011;30155;52.164;21.236;2023-01-15T20:17:48;14.60;;;11.10;;
44452;SDS011;30155;52.164;21.236;2023-01-15T20:22:42;15.10;;;11.80;;
44452;SDS011;30155;52.164;21.236;2023-01-15T20:27:36;13.50;;;11.20;;
44452;SDS011;30155;52.164;21.236;2023-01-15T20:32:30;14.00;;;11.00;;
44452;SDS011;30155;52.164;21.236;2023-01-15T20:37:24;13.90;;;9.90;;
44452;SDS011;30155;52.164;21.236;2023-01-15T20:42:17;12.70;;;10.00;;
44452;SDS011;30155;52.164;21.236;2023-01-15T20:47:27;16.20;;;11.10;;
44452;SDS011;30155;52.164;21.236;2023-01-15T20:52:38;14.50;;;11.60;;
44452;SDS011;30155;52.164;21.236;2023-01-15T20:57:37;11.70;;;10.10;;
44452;SDS011;30155;52.164;21.236;2023-01-15T21:02:31;15.70;;;11.40;;
44452;SDS011;30155;52.164;21.236;2023-01-15T21:07:24;18.00;;;13.70;;
44452;SDS011;30155;52.164;21.236;2023-01-15T21:12:17;14.90;;;11.90;;
44452;SDS011;30155;52.164;21.236;2023-01-15T21:17:10;17.00;;;12.00;;
44452;SDS011;30155;52.164;21.236;2023-01-15T21:22:03;16.00;;;11.20;;
44452;SDS011;30155;52.164;21.236;2023-01-15T21:26:56;14.90;;;11.90;;
44452;SDS011;30155;52.164;21.236;2023-01-15T21:31:49;13.00;;;10.60;;
44452;SDS011;30155;52.164;21.236;2023-01-15T21:36:44;12.40;;;10.40;;
44452;SDS011;30155;52.164;21.236;2023-01-15T21:41:37;8.90;;;7.90;;
44452;SDS011;30155;52.164;21.236;2023-01-15T21:46:48;11.20;;;10.00;;
44452;SDS011;30155;52.164;21.236;2023-01-15T21:51:41;12.20;;;9.30;;
44452;SDS011;30155;52.164;21.236;2023-01-15T21:56:34;12.10;;;9.60;;
44452;SDS011;30155;52.164;21.236;2023-01-15T22:01:28;10.90;;;9.30;;
44452;SDS011;30155;52.164;21.236;2023-01-15T22:06:22;11.90;;;8.60;;
44452;SDS011;30155;52.164;21.236;2023-01-15T22:11:14;10.60;;;7.60;;
44452;SDS011;30155;52.164;21.236;2023-01-15T22:16:07;12.20;;;7.80;;
44452;SDS011;30155;52.164;21.236;2023-01-15T22:21:06;9.40;;;7.70;;
44452;SDS011;30155;52.164;21.236;2023-01-15T22:26:05;10.60;;;6.60;;
44452;SDS011;30155;52.164;21.236;2023-01-15T22:30:58;11.60;;;6.90;;
44452;SDS011;30155;52.164;21.236;2023-01-15T22:35:54;8.60;;;6.10;;
44452;SDS011;30155;52.164;21.236;2023-01-15T22:40:49;8.50;;;6.20;;
44452;SDS011;30155;52.164;21.236;2023-01-15T22:45:44;7.70;;;6.10;;
44452;SDS011;30155;52.164;21.236;2023-01-15T22:50:47;7.60;;;5.70;;
44452;SDS011;30155;52.164;21.236;2023-01-15T22:55:40;6.80;;;5.90;;
44452;SDS011;30155;52.164;21.236;2023-01-15T23:00:33;6.70;;;5.90;;
44452;SDS011;30155;52.164;21.236;2023-01-15T23:05:26;6.50;;;5.50;;
44452;SDS011;30155;52.164;21.236;2023-01-15T23:10:20;6.80;;;5.60;;
44452;SDS011;30155;52.164;21.236;2023-01-15T23:15:13;7.60;;;5.90;;
44452;SDS011;30155;52.164;21.236;2023-01-15T23:20:09;5.90;;;5.10;;
44452;SDS011;30155;52.164;21.236;2023-01-15T23:25:03;8.30;;;6.50;;
44452;SDS011;30155;52.164;21.236;2023-01-15T23:29:59;9.10;;;6.30;;
44452;SDS011;30155;52.164;21.236;2023-01-15T23:34:52;5.60;;;4.90;;
44452;SDS011;30155;52.164;21.236;2023-01-15T23:39:45;6.60;;;4.60;;
44452;SDS011;30155;52.164;21.236;2023-01-15T23:44:38;6.90;;;4.50;;
44452;SDS011;30155;52.164;21.236;2023-01-15T23:49:49;6.70;;;4.60;;
44452;SDS011;30155;52.164;21.236;2023-01-15T23:54:41;7.20;;;5.20;;
44452;SDS011;30155;52.164;21.236;2023-01-15T23:59:34;7.30;;;4.70;;
